PHOG

Kahului Airport

Airport
ICAO code
PHOG
IATA Code
OGG
Summary
ICAO Region
NAM
ICAO Territory
Location

Kahului, Hawaii

Serving
Kahului
Elevation
54 ft
Coordinates
20° 53' 47" N , 156° 26' 3" W
KCC
As
Airport BS
Bird Strike
Metar
Observation
PHOG 110854Z 06015G24KT 10SM CLR 26/19 A3011 RMK AO2 SLP200 T02610194 51019
Station
Kahului, Kahului Airport
Date/Time
2022-08-11 08:54:00
Wind direction
60°
Wind speed
15 kts
Lowest cloud amount
n/a
Temperature
26.1°C
Dew point
19.4°C
Humidity
66%
Weather condition
n/a

Description

Kahului Airport is a regional airport in the state of Hawaii, located east of the Kahului CDP in Maui County on the island of Maui near Haleakala.

Climatology

Tropical Savanna climate (Köppen climate classification As) - monthly mean temperature above 18°C in every month of the year and a pronounced dry season.

Runways

Designator Length Width Surface Rops
5/23 1521 46 ASP Yes/Yes
2/20 2132 46 ASP Yes/Yes

Airport map

Aerial View

SKYbrary Partners:

Safety knowledge contributed by: